Monday, October 22, 2018, 12:06 AM EDT
Back to Local

KTEB, Teterboro Airport

Location: South Hackensack, NJ, United States Lat: 40.867
Local Time: 12:06 AM EDT ( 4:06 GMT) Lon: -74.05
Time Zone: US/Eastern Elev: 9 ft

Show me the last for .
Show Decoded

2018-10-21 23:51 METAR KTEB 220351Z 24003KT 10SM CLR 02/M03 A3017 RMK AO2 SLP217 T00221028 =
2018-10-21 22:51 METAR KTEB 220251Z 27003KT 10SM CLR 02/M03 A3017 RMK AO2 SLP215 T00221028 51016
                 =
2018-10-21 21:51 METAR KTEB 220151Z 32004KT 10SM CLR 03/M03 A3015 RMK AO2 SLP210 T00331033 =
2018-10-21 20:51 METAR KTEB 220051Z 31005KT 10SM CLR 04/M04 A3014 RMK AO2 SLP206 T00391039 =
2018-10-21 19:51 METAR KTEB 212351Z 34004KT 10SM CLR 05/M04 A3012 RMK AO2 SLP199 T00501039 10094
                 20044 51035 =
2018-10-21 18:51 METAR KTEB 212251Z 32007KT 10SM CLR 05/M04 A3009 RMK AO2 SLP190 T00501039 =
2018-10-21 17:51 METAR KTEB 212151Z 32009KT 10SM CLR 06/M04 A3006 RMK AO2 PK WND 30029/2057
                 SLP179 T00611039 =
2018-10-21 16:51 METAR KTEB 212051Z AUTO 33014G28KT 10SM CLR 08/M04 A3002 RMK AO2 PK WND
                 31030/2028 SLP164 T00781044 53019 =
2018-10-21 15:51 METAR KTEB 211951Z 32020G27KT 10SM FEW050 08/M04 A2998 RMK AO2 PK WND 32028/1858
                 SLP152 T00831039 =
2018-10-21 14:51 METAR KTEB 211851Z 33020G32KT 10SM BKN050 08/M04 A2998 RMK AO2 PK WND 34032/1850
                 SLP150 T00781044 =
2018-10-21 13:51 METAR KTEB 211751Z 31018G27KT 10SM OVC055 08/M03 A2996 RMK AO2 PK WND 33032/1710
                 SLP145 T00831028 10083 20072 51006 =
2018-10-21 12:51 METAR KTEB 211651Z 31016G24KT 10SM OVC050 08/M01 A2996 RMK AO2 SLP143 T00781011
                 =
2018-10-21 11:51 METAR KTEB 211551Z 32011G24KT 10SM OVC047 07/M02 A2996 RMK AO2 PK WND 33029/1452
                 SLP147 T00721022 =
2018-10-21 10:51 METAR KTEB 211451Z 33016G28KT 10SM OVC049 07/M03 A2994 RMK AO2 PK WND 34030/1408
                 SLP138 T00721028 51040 =
2018-10-21 09:51 METAR KTEB 211351Z 32016G24KT 10SM OVC045 07/M02 A2993 RMK AO2 PK WND 30031/1323
                 SLP134 T00721017 =
2018-10-21 08:51 METAR KTEB 211251Z 34013G30KT 10SM FEW043 08/M02 A2988 RMK AO2 PK WND 33030/1242
                 SLP119 T00781017 =
2018-10-21 07:51 METAR KTEB 211151Z 32014G21KT 10SM BKN039 BKN047 OVC110 08/01 A2982 RMK AO2 PK
                 WND 36026/1120 PRESRR SLP099 T00830011 10100 20083 53053 =
2018-10-21 06:51 METAR KTEB 211051Z 33010G18KT 10SM OVC075 09/04 A2976 RMK AO2 SLP077 T00890039 =
2018-10-21 05:51 METAR KTEB 210951Z 33010KT 10SM OVC060 09/04 A2971 RMK AO2 SLP059 T00890044 =
2018-10-21 04:51 METAR KTEB 210851Z 32009KT 10SM OVC049 09/06 A2967 RMK AO2 SLP046 T00890056
                 51029 =
2018-10-21 03:51 METAR KTEB 210751Z 35008G18KT 10SM SCT022 OVC037 09/07 A2963 RMK AO2 SLP033
                 T00940067 =
2018-10-21 02:51 METAR KTEB 210651Z 31007KT 10SM SCT016 BKN120 10/08 A2962 RMK AO2 SLP029
                 T01000078 =
2018-10-21 01:51 METAR KTEB 210551Z 02004KT 10SM FEW040 BKN120 10/08 A2958 RMK AO2 RAB14E46
                 PRESFR SLP016 P0000 60000 T01000078 10133 20094 58014 =
2018-10-21 00:51 METAR KTEB 210451Z 29008KT 10SM OVC050 11/07 A2963 RMK AO2 SLP032 T01060067
                 401780106 =

Support USWX by starting your Amazon purchase here.